createdAt,value
2023-02-01T00:01:16.329Z,101222.66
2023-02-01T00:03:42.943Z,101220.72
2023-02-01T00:06:09.244Z,101219.88
2023-02-01T00:08:36.021Z,101226.28
2023-02-01T00:11:04.076Z,101229.88
2023-02-01T00:13:31.697Z,101220.38
2023-02-01T00:16:05.382Z,101222.00
2023-02-01T00:18:31.772Z,101222.50
2023-02-01T00:20:59.530Z,101217.44
2023-02-01T00:23:46.986Z,101208.81
2023-02-01T00:26:19.327Z,101211.28
2023-02-01T00:28:46.389Z,101211.44
2023-02-01T00:31:19.110Z,101203.59
2023-02-01T00:33:48.436Z,101197.72
2023-02-01T00:36:15.050Z,101207.69
2023-02-01T00:38:50.574Z,101203.44
2023-02-01T00:41:20.471Z,101193.16
2023-02-01T00:43:47.285Z,101185.28
2023-02-01T00:46:19.912Z,101178.59
2023-02-01T00:48:46.588Z,101191.38
2023-02-01T00:51:14.882Z,101188.59
2023-02-01T00:53:42.372Z,101193.16
2023-02-01T00:56:09.264Z,101196.75
2023-02-01T00:58:45.264Z,101198.88
2023-02-01T01:01:16.788Z,101190.22
2023-02-01T01:03:44.335Z,101195.44
2023-02-01T01:06:14.886Z,101187.09
2023-02-01T01:08:43.588Z,101193.66
2023-02-01T01:11:14.785Z,101188.91
2023-02-01T01:13:41.596Z,101186.59
2023-02-01T01:16:09.009Z,101187.13
2023-02-01T01:18:42.326Z,101183.19
2023-02-01T01:21:09.404Z,101172.88
2023-02-01T01:23:36.272Z,101181.72
2023-02-01T01:26:07.942Z,101190.53
2023-02-01T01:28:34.356Z,101188.25
2023-02-01T01:31:00.815Z,101186.28
2023-02-01T01:33:35.503Z,101177.94
2023-02-01T01:36:03.380Z,101181.22
2023-02-01T01:38:37.036Z,101175.31
2023-02-01T01:41:03.736Z,101180.06
2023-02-01T01:43:50.326Z,101193.63
2023-02-01T01:46:21.631Z,101180.88
2023-02-01T01:48:53.805Z,101180.88
2023-02-01T01:51:21.768Z,101177.78
2023-02-01T01:53:54.729Z,101176.63
2023-02-01T01:56:21.247Z,101177.78
2023-02-01T01:58:47.495Z,101169.13
2023-02-01T02:01:13.825Z,101160.78
2023-02-01T02:03:43.079Z,101154.41
2023-02-01T02:06:16.605Z,101152.09
2023-02-01T02:08:44.760Z,101144.91
2023-02-01T02:11:13.316Z,101144.56
2023-02-01T02:13:48.178Z,101148.50
2023-02-01T02:16:20.641Z,101146.88
2023-02-01T02:18:54.345Z,101142.78
2023-02-01T02:24:39.709Z,101126.09
2023-02-01T02:27:25.267Z,101122.19
2023-02-01T02:29:57.420Z,101118.91
2023-02-01T02:32:29.943Z,101126.09
2023-02-01T02:34:56.432Z,101120.53
2023-02-01T02:37:39.996Z,101113.34
2023-02-01T02:40:25.295Z,101127.75
2023-02-01T02:43:23.417Z,101117.75
2023-02-01T02:46:22.001Z,101130.19
2023-02-01T02:49:03.841Z,101125.44
2023-02-01T02:52:14.289Z,101120.69
2023-02-01T02:54:49.073Z,101107.25
2023-02-01T02:57:37.816Z,101098.91
2023-02-01T03:00:26.224Z,101107.78
2023-02-01T03:03:11.907Z,101103.03
2023-02-01T03:05:41.514Z,101087.16
2023-02-01T03:08:14.929Z,101092.72
2023-02-01T03:10:54.614Z,101085.53
2023-02-01T03:13:36.112Z,101089.47
2023-02-01T03:16:03.423Z,101082.25
2023-02-01T03:18:34.792Z,101073.09
2023-02-01T03:21:07.631Z,101069.50
2023-02-01T03:23:36.189Z,101064.28
2023-02-01T03:26:04.322Z,101065.09
2023-02-01T03:28:37.279Z,101055.13
2023-02-01T03:31:03.909Z,101058.72
2023-02-01T03:33:34.708Z,101051.53
2023-02-01T03:36:02.334Z,101056.28
2023-02-01T03:38:33.583Z,101052.19
2023-02-01T03:41:20.473Z,101058.53
2023-02-01T03:44:07.245Z,101056.09
2023-02-01T03:46:35.654Z,101043.34
2023-02-01T03:49:11.761Z,101046.31
2023-02-01T03:51:40.916Z,101050.03
2023-02-01T03:54:12.528Z,101044.00
2023-02-01T03:56:48.094Z,101045.16
2023-02-01T03:59:14.864Z,101045.63
2023-02-01T04:01:41.856Z,101045.63
2023-02-01T04:04:08.357Z,101039.25
2023-02-01T04:06:34.616Z,101045.63
2023-02-01T04:09:01.459Z,101053.97
2023-02-01T04:11:28.635Z,101048.41
2023-02-01T04:13:54.947Z,101057.56
2023-02-01T04:16:21.280Z,101055.13
2023-02-01T04:18:49.752Z,101054.78
2023-02-01T04:21:16.323Z,101045.63
2023-02-01T04:23:44.120Z,101051.19
2023-02-01T04:26:13.023Z,101053.66
2023-02-01T04:28:39.317Z,101050.03
2023-02-01T04:31:05.784Z,101044.81
2023-02-01T04:33:34.089Z,101043.66
2023-02-01T04:36:00.342Z,101038.13
2023-02-01T04:38:26.597Z,101027.81
2023-02-01T04:40:52.803Z,101033.38
2023-02-01T04:43:19.250Z,101033.38
2023-02-01T04:45:49.905Z,101039.78
2023-02-01T04:48:16.742Z,101026.19
2023-02-01T04:50:44.102Z,101011.47
2023-02-01T04:53:10.387Z,101021.78
2023-02-01T04:55:36.786Z,101015.06
2023-02-01T04:58:03.071Z,101021.78
2023-02-01T05:00:29.371Z,101024.56
2023-02-01T05:02:55.641Z,101028.81
2023-02-01T05:05:21.926Z,101026.06
2023-02-01T05:07:48.547Z,101034.84
2023-02-01T05:10:14.959Z,101039.25
2023-02-01T05:12:59.980Z,101023.75
2023-02-01T05:15:28.453Z,101022.25
2023-02-01T05:17:54.775Z,101021.94
2023-02-01T05:20:21.250Z,101026.34
2023-02-01T05:22:47.902Z,101023.22
2023-02-01T05:25:14.387Z,101024.03
2023-02-01T05:27:40.635Z,101024.03
2023-02-01T05:30:07.382Z,101025.69
2023-02-01T05:32:34.036Z,101033.69
2023-02-01T05:35:00.515Z,101039.25
2023-02-01T05:37:27.282Z,101035.31
2023-02-01T05:39:53.514Z,101040.88
2023-02-01T05:42:20.000Z,101042.50
2023-02-01T05:44:46.750Z,101025.00
2023-02-01T05:47:13.601Z,101021.91
2023-02-01T05:49:39.900Z,101014.69
2023-02-01T05:52:06.529Z,101004.38
2023-02-01T05:54:32.807Z,101009.13
2023-02-01T05:56:59.043Z,101005.88
2023-02-01T05:59:25.379Z,101000.16
2023-02-01T06:01:51.696Z,101006.06
2023-02-01T06:04:18.000Z,101002.31
2023-02-01T06:06:44.518Z,101005.28
2023-02-01T06:09:10.798Z,101001.69
2023-02-01T06:11:39.492Z,100995.63
2023-02-01T06:14:05.791Z,101013.13
2023-02-01T06:16:32.905Z,101011.19
2023-02-01T06:18:59.358Z,101007.25
2023-02-01T06:21:25.714Z,101014.44
2023-02-01T06:23:52.794Z,101012.97
2023-02-01T06:26:19.191Z,101023.41
2023-02-01T06:28:48.537Z,101023.09
2023-02-01T06:31:15.202Z,101023.91
2023-02-01T06:33:41.740Z,101027.97
2023-02-01T06:36:09.049Z,101036.66
2023-02-01T06:38:35.907Z,101045.47
2023-02-01T06:41:03.194Z,101031.56
2023-02-01T06:43:29.450Z,101035.84
2023-02-01T06:46:00.982Z,101030.59
2023-02-01T06:48:27.248Z,101039.25
2023-02-01T06:50:53.864Z,101040.41
2023-02-01T06:53:21.205Z,101049.91
2023-02-01T06:55:57.962Z,101053.84
2023-02-01T06:58:24.494Z,101043.84
2023-02-01T07:00:51.532Z,101045.00
2023-02-01T07:03:17.861Z,101040.59
2023-02-01T07:05:44.143Z,101052.88
2023-02-01T07:08:10.601Z,101041.75
2023-02-01T07:10:38.159Z,101038.16
2023-02-01T07:13:05.027Z,101040.94
2023-02-01T07:15:31.520Z,101065.63
2023-02-01T07:17:58.055Z,101073.97
2023-02-01T07:20:25.106Z,101072.00
2023-02-01T07:22:56.004Z,101080.00
2023-02-01T07:25:22.628Z,101072.47
2023-02-01T07:27:48.906Z,101067.41
2023-02-01T07:30:15.342Z,101077.38
2023-02-01T07:32:42.233Z,101076.22
2023-02-01T07:35:08.897Z,101095.38
2023-02-01T07:37:35.334Z,101093.41
2023-02-01T07:40:02.272Z,101097.00
2023-02-01T07:42:28.686Z,101083.91
2023-02-01T07:44:55.110Z,101088.31
2023-02-01T07:47:21.410Z,101103.03
2023-02-01T07:49:47.900Z,101098.28
2023-02-01T07:52:17.972Z,101102.72
2023-02-01T07:54:44.651Z,101095.84
2023-02-01T07:57:12.672Z,101092.41
2023-02-01T08:00:01.760Z,101096.47
2023-02-01T08:02:28.136Z,101105.31
2023-02-01T08:04:54.422Z,101100.59
2023-02-01T08:07:20.807Z,101095.00
2023-02-01T08:09:47.156Z,101098.28
2023-02-01T08:12:13.440Z,101099.91
2023-02-01T08:14:41.997Z,101101.22
2023-02-01T08:17:08.334Z,101106.44
2023-02-01T08:19:34.821Z,101096.94
2023-02-01T08:22:03.092Z,101101.03
2023-02-01T08:24:29.381Z,101093.84
2023-02-01T08:26:55.844Z,101112.97
2023-02-01T08:29:22.198Z,101113.44
2023-02-01T08:31:48.476Z,101119.84
2023-02-01T08:34:14.864Z,101111.50
2023-02-01T08:36:41.802Z,101110.34
2023-02-01T08:39:10.331Z,101110.00
2023-02-01T08:41:36.641Z,101119.97
2023-02-01T08:44:03.070Z,101106.88
2023-02-01T08:46:30.682Z,101107.69
2023-02-01T08:48:57.071Z,101105.44
2023-02-01T08:51:23.907Z,101102.66
2023-02-01T08:53:50.858Z,101118.69
2023-02-01T08:56:18.087Z,101105.59
2023-02-01T08:58:44.410Z,101111.28
2023-02-01T09:01:12.579Z,101114.06
2023-02-01T09:03:38.958Z,101119.78
2023-02-01T09:06:06.412Z,101121.09
2023-02-01T09:08:33.041Z,101115.19
2023-02-01T09:11:03.672Z,101116.00
2023-02-01T09:13:30.305Z,101117.97
2023-02-01T09:15:56.894Z,101119.94
2023-02-01T09:18:23.833Z,101109.97
2023-02-01T09:20:50.142Z,101112.75
2023-02-01T09:23:16.513Z,101106.38
2023-02-01T09:25:43.133Z,101098.84
2023-02-01T09:28:09.988Z,101098.84
2023-02-01T09:30:37.328Z,101095.72
2023-02-01T09:33:04.004Z,101088.66
2023-02-01T09:35:30.438Z,101090.78
2023-02-01T09:37:56.777Z,101081.78
2023-02-01T09:40:23.613Z,101079.47
2023-02-01T09:42:59.195Z,101084.69
2023-02-01T09:45:25.477Z,101086.47
2023-02-01T09:47:54.380Z,101094.50
2023-02-01T09:50:24.159Z,101093.81
2023-02-01T09:52:56.950Z,101085.16
2023-02-01T09:55:32.523Z,101092.34
2023-02-01T09:58:09.190Z,101091.53
2023-02-01T10:00:37.892Z,101089.56
2023-02-01T10:03:04.558Z,101081.22
2023-02-01T10:05:37.269Z,101084.47
2023-02-01T10:08:14.020Z,101090.03
2023-02-01T10:11:05.851Z,101085.28
2023-02-01T10:13:41.698Z,101074.97
2023-02-01T10:16:18.694Z,101069.53
2023-02-01T10:18:53.479Z,101078.38
2023-02-01T10:21:52.288Z,101080.47
2023-02-01T10:24:37.421Z,101085.38
2023-02-01T10:27:13.595Z,101095.06
2023-02-01T10:29:44.364Z,101093.53
2023-02-01T10:32:15.568Z,101065.84
2023-02-01T10:34:43.235Z,101098.13
2023-02-01T10:37:20.234Z,101087.16
2023-02-01T10:39:48.843Z,101089.59
2023-02-01T10:42:15.166Z,101093.19
2023-02-01T10:44:45.996Z,101085.31
2023-02-01T10:47:12.412Z,101100.38
2023-02-01T10:49:53.754Z,101067.47
2023-02-01T10:52:37.616Z,101075.66
2023-02-01T10:55:22.540Z,101079.59
2023-02-01T10:57:56.277Z,101081.09
2023-02-01T11:00:23.411Z,101077.84
2023-02-01T11:02:51.327Z,101087.00
2023-02-01T11:05:19.638Z,101074.22
2023-02-01T11:07:50.873Z,101076.50
2023-02-01T11:10:35.766Z,101071.75
2023-02-01T11:13:03.697Z,101060.59
2023-02-01T11:15:29.984Z,101059.78
2023-02-01T11:17:57.570Z,101052.59
2023-02-01T11:20:33.074Z,101059.47
2023-02-01T11:22:59.796Z,101056.03
2023-02-01T11:25:27.053Z,101042.91
2023-02-01T11:27:55.925Z,101047.66
2023-02-01T11:30:32.110Z,101040.13
2023-02-01T11:32:58.658Z,101031.78
2023-02-01T11:35:25.784Z,101023.44
2023-02-01T11:37:57.165Z,101021.81
2023-02-01T11:40:28.343Z,101018.19
2023-02-01T11:42:56.597Z,101015.41
2023-02-01T11:45:30.777Z,101006.25
2023-02-01T11:47:58.789Z,100994.78
2023-02-01T11:50:28.067Z,100982.97
2023-02-01T11:53:03.906Z,100982.28
2023-02-01T11:55:48.114Z,100969.66
2023-02-01T11:58:30.268Z,100967.00
2023-02-01T12:01:15.499Z,100967.16
2023-02-01T12:04:01.557Z,100968.06
2023-02-01T12:06:39.815Z,100961.38
2023-02-01T12:09:25.017Z,100964.25
2023-02-01T12:11:56.388Z,100964.25
2023-02-01T12:14:41.411Z,100954.63
2023-02-01T12:17:10.908Z,100948.56
2023-02-01T12:19:49.481Z,100952.38
2023-02-01T12:22:23.308Z,100963.72
2023-02-01T12:24:53.621Z,100966.25
2023-02-01T12:27:20.025Z,100958.09
2023-02-01T12:29:49.435Z,100950.75
2023-02-01T12:32:17.386Z,100940.97
2023-02-01T12:34:56.644Z,100955.91
2023-02-01T12:37:29.085Z,100946.94
2023-02-01T12:40:15.776Z,100955.81
2023-02-01T12:43:00.285Z,100947.22
2023-02-01T12:45:38.746Z,100941.50
2023-02-01T12:48:05.029Z,100938.25
2023-02-01T12:50:35.078Z,100939.38
2023-02-01T12:53:09.943Z,100932.19
2023-02-01T12:55:46.786Z,100909.13
2023-02-01T12:58:23.511Z,100917.13
2023-02-01T13:01:19.250Z,100906.78
2023-02-01T13:03:55.047Z,100910.06
2023-02-01T13:06:27.411Z,100909.56
2023-02-01T13:08:58.378Z,100928.75
2023-02-01T13:11:30.909Z,100922.81
2023-02-01T13:14:02.481Z,100931.53
2023-02-01T13:16:35.097Z,100921.88
2023-02-01T13:19:09.280Z,100915.84
2023-02-01T13:21:40.019Z,100926.16
2023-02-01T13:24:15.872Z,100937.59
2023-02-01T13:26:42.325Z,100931.22
2023-02-01T13:29:11.857Z,100921.59
2023-02-01T13:31:40.723Z,100914.88
2023-02-01T13:34:26.675Z,100919.78
2023-02-01T13:37:12.020Z,100913.53
2023-02-01T13:40:01.335Z,100910.06
2023-02-01T13:42:30.062Z,100911.34
2023-02-01T13:44:56.562Z,100922.63
2023-02-01T13:47:29.030Z,100916.03
2023-02-01T13:49:57.233Z,100907.50
2023-02-01T13:52:26.044Z,100920.38
2023-02-01T13:55:01.981Z,100914.63
2023-02-01T13:57:37.789Z,100919.97
2023-02-01T14:00:08.525Z,100925.34
2023-02-01T14:02:46.319Z,100916.34
2023-02-01T14:05:32.974Z,100922.50
2023-02-01T14:08:05.538Z,100920.69
2023-02-01T14:10:53.479Z,100919.53
2023-02-01T14:13:31.114Z,100913.28
2023-02-01T14:16:04.567Z,100907.34
2023-02-01T14:18:37.217Z,100923.03
2023-02-01T14:21:25.067Z,100914.03
2023-02-01T14:23:54.323Z,100924.13
2023-02-01T14:26:20.649Z,100930.97
2023-02-01T14:28:50.554Z,100914.75
2023-02-01T14:31:34.751Z,100931.91
2023-02-01T14:34:02.936Z,100927.03
2023-02-01T14:36:40.736Z,100942.25
2023-02-01T14:39:19.557Z,100941.44
2023-02-01T14:41:47.162Z,100935.88
2023-02-01T14:44:15.703Z,100937.34
2023-02-01T14:47:00.352Z,100936.91
2023-02-01T14:49:30.354Z,100933.63
2023-02-01T14:51:57.964Z,100940.84
2023-02-01T14:54:24.861Z,100938.06
2023-02-01T14:56:52.471Z,100949.19
2023-02-01T14:59:23.287Z,100933.75
2023-02-01T15:01:51.854Z,100946.53
2023-02-01T15:04:19.778Z,100940.63
2023-02-01T15:06:57.469Z,100959.44
2023-02-01T15:09:27.554Z,100965.50
2023-02-01T15:12:16.783Z,100952.38
2023-02-01T15:14:49.932Z,100954.00
2023-02-01T15:17:39.134Z,100956.78
2023-02-01T15:20:18.759Z,100973.94
2023-02-01T15:22:57.611Z,100959.69
2023-02-01T15:25:28.408Z,100976.41
2023-02-01T15:27:55.148Z,100966.91
2023-02-01T15:30:23.124Z,100973.75
2023-02-01T15:32:49.597Z,100967.34
2023-02-01T15:35:36.986Z,100975.41
2023-02-01T15:38:22.170Z,100964.25
2023-02-01T15:41:00.186Z,100962.28
2023-02-01T15:43:27.738Z,100975.41
2023-02-01T15:45:57.740Z,100953.44
2023-02-01T15:48:25.784Z,100960.97
2023-02-01T15:50:53.404Z,100963.31
2023-02-01T15:53:21.967Z,100963.16
2023-02-01T15:55:52.792Z,100963.50
2023-02-01T15:58:22.236Z,100959.09
2023-02-01T16:00:50.204Z,100957.81
2023-02-01T16:03:37.440Z,100957.34
2023-02-01T16:06:05.636Z,100969.97
2023-02-01T16:08:33.327Z,100978.31
2023-02-01T16:11:15.887Z,100984.56
2023-02-01T16:13:42.209Z,100966.94
2023-02-01T16:16:14.710Z,100950.91
2023-02-01T16:18:41.928Z,100962.72
2023-02-01T16:21:11.843Z,100976.97
2023-02-01T16:23:38.135Z,100961.44
2023-02-01T16:26:04.856Z,100964.56
2023-02-01T16:28:33.281Z,100968.16
2023-02-01T16:31:00.134Z,100966.19
2023-02-01T16:33:26.777Z,100972.22
2023-02-01T16:35:53.333Z,100981.88
2023-02-01T16:38:22.307Z,100981.53
2023-02-01T16:40:50.108Z,100997.56
2023-02-01T16:43:19.946Z,100994.09
2023-02-01T16:45:49.886Z,100993.78
2023-02-01T16:48:22.186Z,101004.06
2023-02-01T16:50:57.279Z,101018.84
2023-02-01T16:53:24.510Z,101029.84
2023-02-01T16:55:53.074Z,101036.06
2023-02-01T16:58:19.829Z,101054.63
2023-02-01T17:00:48.354Z,101061.53
2023-02-01T17:03:17.463Z,101070.75
2023-02-01T17:05:45.552Z,101078.19
2023-02-01T17:08:13.355Z,101086.94
2023-02-01T17:10:39.661Z,101098.09
2023-02-01T17:13:06.207Z,101086.84
2023-02-01T17:15:37.434Z,101096.06
2023-02-01T17:18:04.219Z,101087.75
2023-02-01T17:20:32.992Z,101083.00
2023-02-01T17:22:59.501Z,101079.13
2023-02-01T17:25:27.112Z,101090.44
2023-02-01T17:27:54.668Z,101092.53
2023-02-01T17:30:21.048Z,101084.06
2023-02-01T17:32:47.460Z,101068.69
2023-02-01T17:35:19.969Z,101068.56
2023-02-01T17:37:46.885Z,101072.47
2023-02-01T17:40:13.159Z,101075.09
2023-02-01T17:42:39.482Z,101076.91
2023-02-01T17:45:27.475Z,101082.31
2023-02-01T17:47:54.147Z,101069.41
2023-02-01T17:50:20.588Z,101077.56
2023-02-01T17:52:46.815Z,101086.88
2023-02-01T17:55:17.999Z,101078.41
2023-02-01T17:57:45.646Z,101089.34
2023-02-01T18:00:13.645Z,101085.25
2023-02-01T18:02:40.294Z,101091.50
2023-02-01T18:05:19.291Z,101089.03
2023-02-01T18:07:46.550Z,101084.31
2023-02-01T18:10:13.105Z,101092.31
2023-02-01T18:12:40.095Z,101080.03
2023-02-01T18:15:20.331Z,101099.16
2023-02-01T18:17:47.300Z,101094.44
2023-02-01T18:20:17.838Z,101096.06
2023-02-01T18:22:44.801Z,101080.53
2023-02-01T18:25:18.476Z,101097.22
2023-02-01T18:27:44.763Z,101059.13
2023-02-01T18:30:11.544Z,101107.47
2023-02-01T18:32:40.279Z,101100.97
2023-02-01T18:35:26.440Z,101082.16
2023-02-01T18:37:53.788Z,101085.25
2023-02-01T18:40:21.913Z,101091.44
2023-02-01T18:42:48.519Z,101089.31
2023-02-01T18:45:23.151Z,101106.81
2023-02-01T18:47:49.852Z,101097.66
2023-02-01T18:50:17.134Z,101104.34
2023-02-01T18:52:43.383Z,101103.19
2023-02-01T18:55:10.755Z,101109.91
2023-02-01T18:57:37.943Z,101113.50
2023-02-01T19:00:05.772Z,101115.47
2023-02-01T19:02:32.292Z,101119.06
2023-02-01T19:04:58.623Z,101123.78
2023-02-01T19:07:25.670Z,101130.16
2023-02-01T19:09:52.885Z,101125.13
2023-02-01T19:12:19.185Z,101122.00
2023-02-01T19:14:45.705Z,101125.78
2023-02-01T19:17:13.508Z,101147.69
2023-02-01T19:19:41.892Z,101155.38
2023-02-01T19:22:08.313Z,101136.13
2023-02-01T19:24:36.928Z,101138.56
2023-02-01T19:27:03.401Z,101123.50
2023-02-01T19:29:30.431Z,101113.22
2023-02-01T19:31:57.424Z,101117.13
2023-02-01T19:34:24.834Z,101131.84
2023-02-01T19:36:51.192Z,101116.31
2023-02-01T19:39:17.489Z,101105.22
2023-02-01T19:41:43.857Z,101119.91
2023-02-01T19:44:10.331Z,101120.25
2023-02-01T19:46:36.821Z,101117.47
2023-02-01T19:49:03.158Z,101122.22
2023-02-01T19:51:29.588Z,101120.25
2023-02-01T19:53:55.863Z,101122.22
2023-02-01T19:56:22.361Z,101126.94
2023-02-01T19:58:50.064Z,101119.75
2023-02-01T20:01:15.655Z,101125.31
2023-02-01T20:03:42.158Z,101124.16
2023-02-01T20:06:09.737Z,101120.25
2023-02-01T20:08:37.864Z,101120.72
2023-02-01T20:11:09.047Z,101126.47
2023-02-01T20:13:38.663Z,101123.34
2023-02-01T20:16:05.122Z,101115.19
2023-02-01T20:18:31.469Z,101107.66
2023-02-01T20:20:58.511Z,101115.81
2023-02-01T20:23:25.353Z,101122.38
2023-02-01T20:25:52.513Z,101126.44
2023-02-01T20:28:18.952Z,101126.94
2023-02-01T20:30:46.163Z,101120.22
2023-02-01T20:33:12.811Z,101128.22
2023-02-01T20:35:43.561Z,101118.78
2023-02-01T20:38:09.767Z,101111.91
2023-02-01T20:40:37.743Z,101117.78
2023-02-01T20:43:04.294Z,101115.81
2023-02-01T20:45:30.739Z,101112.22
2023-02-01T20:47:57.023Z,101114.50
2023-02-01T20:50:25.115Z,101118.09
2023-02-01T20:52:51.384Z,101129.22
2023-02-01T20:55:17.863Z,101127.28
2023-02-01T20:57:44.099Z,101120.88
2023-02-01T21:00:10.783Z,101120.56
2023-02-01T21:02:37.323Z,101136.91
2023-02-01T21:05:04.162Z,101149.66
2023-02-01T21:07:30.456Z,101148.50
2023-02-01T21:09:56.760Z,101150.97
2023-02-01T21:12:23.192Z,101156.19
2023-02-01T21:14:49.664Z,101163.38
2023-02-01T21:17:16.065Z,101170.91
2023-02-01T21:19:45.421Z,101164.53
2023-02-01T21:22:12.693Z,101168.47
2023-02-01T21:24:41.305Z,101155.38
2023-02-01T21:27:08.527Z,101154.56
2023-02-01T21:29:34.950Z,101148.19
2023-02-01T21:32:01.879Z,101154.91
2023-02-01T21:34:28.366Z,101157.69
2023-02-01T21:36:54.631Z,101160.47
2023-02-01T21:39:20.987Z,101170.75
2023-02-01T21:42:06.088Z,101166.84
2023-02-01T21:44:32.355Z,101153.25
2023-02-01T21:46:58.607Z,101141.00
2023-02-01T21:49:28.932Z,101139.03
2023-02-01T21:51:55.459Z,101139.34
2023-02-01T21:54:21.748Z,101144.78
2023-02-01T21:56:48.556Z,101141.47
2023-02-01T21:59:16.464Z,101152.59
2023-02-01T22:01:42.739Z,101156.53
2023-02-01T22:04:10.345Z,101153.28
2023-02-01T22:06:37.966Z,101169.94
2023-02-01T22:09:04.568Z,101160.78
2023-02-01T22:11:32.122Z,101163.88
2023-02-01T22:13:58.873Z,101174.19
2023-02-01T22:16:25.311Z,101176.97
2023-02-01T22:18:52.249Z,101177.31
2023-02-01T22:21:19.123Z,101183.69
2023-02-01T22:23:45.462Z,101187.28
2023-02-01T22:26:12.665Z,101194.78
2023-02-01T22:28:39.541Z,101206.72
2023-02-01T22:31:07.616Z,101198.38
2023-02-01T22:33:33.997Z,101186.47
2023-02-01T22:36:00.891Z,101186.47
2023-02-01T22:38:29.815Z,101202.78
2023-02-01T22:41:00.065Z,101196.41
2023-02-01T22:43:26.493Z,101211.94
2023-02-01T22:45:52.980Z,101219.13
2023-02-01T22:48:19.822Z,101218.00
2023-02-01T22:50:46.281Z,101209.34
2023-02-01T22:53:13.945Z,101206.22
2023-02-01T22:55:42.263Z,101219.31
2023-02-01T22:58:08.591Z,101224.88
2023-02-01T23:00:35.287Z,101234.03
2023-02-01T23:03:02.232Z,101221.78
2023-02-01T23:05:28.532Z,101219.81
2023-02-01T23:07:54.822Z,101225.38
2023-02-01T23:10:22.060Z,101224.22
2023-02-01T23:12:48.681Z,101227.00
2023-02-01T23:15:16.216Z,101228.31
2023-02-01T23:17:43.386Z,101237.44
2023-02-01T23:20:15.807Z,101240.75
2023-02-01T23:22:45.719Z,101249.09
2023-02-01T23:25:13.375Z,101240.41
2023-02-01T23:27:40.169Z,101244.81
2023-02-01T23:30:08.017Z,101247.28
2023-02-01T23:32:35.101Z,101248.59
2023-02-01T23:35:01.578Z,101238.28
2023-02-01T23:37:28.261Z,101243.84
2023-02-01T23:39:54.635Z,101249.91
2023-02-01T23:42:21.313Z,101247.13
2023-02-01T23:44:47.758Z,101253.84
2023-02-01T23:47:14.170Z,101255.47
2023-02-01T23:49:41.132Z,101252.19
2023-02-01T23:52:07.541Z,101250.22
2023-02-01T23:54:33.787Z,101256.28
2023-02-01T23:57:00.059Z,101245.50
2023-02-01T23:59:30.613Z,101251.53
